sensor_id;sensor_type;location;lat;lon;timestamp;pressure;altitude;pressure_sealevel;temperature;humidity
45040;BME280;30778;53.574;7.770;2023-03-19T00:01:43;101108.94;;;6.50;58.47
45040;BME280;30778;53.574;7.770;2023-03-19T00:04:08;101101.13;;;6.53;58.44
45040;BME280;30778;53.574;7.770;2023-03-19T00:06:36;101100.19;;;6.56;57.98
45040;BME280;30778;53.574;7.770;2023-03-19T00:09:02;101102.16;;;6.44;58.48
45040;BME280;30778;53.574;7.770;2023-03-19T00:11:27;101096.69;;;6.57;57.95
45040;BME280;30778;53.574;7.770;2023-03-19T00:13:53;101099.41;;;6.52;58.26
45040;BME280;30778;53.574;7.770;2023-03-19T00:16:18;101105.22;;;6.65;58.25
45040;BME280;30778;53.574;7.770;2023-03-19T00:18:44;101101.69;;;6.67;58.18
45040;BME280;30778;53.574;7.770;2023-03-19T00:21:09;101103.56;;;6.61;58.54
45040;BME280;30778;53.574;7.770;2023-03-19T00:23:35;101102.63;;;6.63;58.47
45040;BME280;30778;53.574;7.770;2023-03-19T00:26:02;101101.59;;;6.72;58.54
45040;BME280;30778;53.574;7.770;2023-03-19T00:28:28;101105.13;;;6.68;58.73
45040;BME280;30778;53.574;7.770;2023-03-19T00:30:54;101119.81;;;6.70;57.81
45040;BME280;30778;53.574;7.770;2023-03-19T00:33:20;101111.75;;;6.84;57.57
45040;BME280;30778;53.574;7.770;2023-03-19T00:35:46;101112.81;;;6.74;57.36
45040;BME280;30778;53.574;7.770;2023-03-19T00:38:12;101120.03;;;6.60;57.45
45040;BME280;30778;53.574;7.770;2023-03-19T00:40:38;101103.75;;;6.52;57.97
45040;BME280;30778;53.574;7.770;2023-03-19T00:43:03;101103.75;;;6.52;57.94
45040;BME280;30778;53.574;7.770;2023-03-19T00:45:29;101101.06;;;6.55;58.00
45040;BME280;30778;53.574;7.770;2023-03-19T00:47:55;101101.91;;;6.57;57.80
45040;BME280;30778;53.574;7.770;2023-03-19T00:50:22;101102.88;;;6.51;58.01
45040;BME280;30778;53.574;7.770;2023-03-19T00:52:49;101104.66;;;6.49;57.98
45040;BME280;30778;53.574;7.770;2023-03-19T00:55:14;101097.63;;;6.54;58.13
45040;BME280;30778;53.574;7.770;2023-03-19T00:57:40;101094.19;;;6.52;58.52
45040;BME280;30778;53.574;7.770;2023-03-19T01:00:06;101100.13;;;6.59;58.42
45040;BME280;30778;53.574;7.770;2023-03-19T01:02:32;101098.34;;;6.61;58.60
45040;BME280;30778;53.574;7.770;2023-03-19T01:04:58;101099.91;;;6.71;58.61
45040;BME280;30778;53.574;7.770;2023-03-19T01:07:24;101093.78;;;6.74;58.42
45040;BME280;30778;53.574;7.770;2023-03-19T01:09:49;101096.25;;;6.80;58.37
45040;BME280;30778;53.574;7.770;2023-03-19T01:12:16;101091.81;;;6.85;58.05
45040;BME280;30778;53.574;7.770;2023-03-19T01:14:43;101102.97;;;6.90;57.85
45040;BME280;30778;53.574;7.770;2023-03-19T01:17:09;101096.91;;;6.89;57.90
45040;BME280;30778;53.574;7.770;2023-03-19T01:19:35;101093.41;;;6.90;58.21
45040;BME280;30778;53.574;7.770;2023-03-19T01:22:01;101091.63;;;6.94;57.86
45040;BME280;30778;53.574;7.770;2023-03-19T01:24:30;101094.13;;;6.99;58.02
45040;BME280;30778;53.574;7.770;2023-03-19T01:26:57;101091.44;;;7.02;57.37
45040;BME280;30778;53.574;7.770;2023-03-19T01:29:30;101095.78;;;7.01;57.66
45040;BME280;30778;53.574;7.770;2023-03-19T01:31:59;101097.41;;;7.07;57.85
45040;BME280;30778;53.574;7.770;2023-03-19T01:34:56;101093.03;;;7.09;57.44
45040;BME280;30778;53.574;7.770;2023-03-19T01:37:21;101099.13;;;7.08;57.53
45040;BME280;30778;53.574;7.770;2023-03-19T01:39:47;101086.00;;;7.14;57.63
45040;BME280;30778;53.574;7.770;2023-03-19T01:42:13;101092.13;;;7.11;57.81
45040;BME280;30778;53.574;7.770;2023-03-19T01:45:31;101091.66;;;7.31;57.34
45040;BME280;30778;53.574;7.770;2023-03-19T01:48:20;101089.91;;;7.33;57.48
45040;BME280;30778;53.574;7.770;2023-03-19T01:51:00;101084.69;;;7.33;57.16
45040;BME280;30778;53.574;7.770;2023-03-19T01:53:46;101082.84;;;7.37;57.52
45040;BME280;30778;53.574;7.770;2023-03-19T01:56:34;101083.47;;;7.48;57.21
45040;BME280;30778;53.574;7.770;2023-03-19T01:59:11;101077.53;;;7.42;57.53
45040;BME280;30778;53.574;7.770;2023-03-19T02:02:06;101085.22;;;7.48;57.05
45040;BME280;30778;53.574;7.770;2023-03-19T02:04:34;101086.06;;;7.48;57.22
45040;BME280;30778;53.574;7.770;2023-03-19T02:07:02;101092.13;;;7.49;56.93
45040;BME280;30778;53.574;7.770;2023-03-19T02:09:28;101090.44;;;7.46;56.97
45040;BME280;30778;53.574;7.770;2023-03-19T02:11:56;101092.94;;;7.51;57.14
45040;BME280;30778;53.574;7.770;2023-03-19T02:14:23;101085.03;;;7.57;56.96
45040;BME280;30778;53.574;7.770;2023-03-19T02:16:49;101086.03;;;7.50;56.76
45040;BME280;30778;53.574;7.770;2023-03-19T02:19:48;101087.00;;;7.46;57.03
45040;BME280;30778;53.574;7.770;2023-03-19T02:22:17;101094.78;;;7.46;56.87
45040;BME280;30778;53.574;7.770;2023-03-19T02:24:50;101090.31;;;7.51;56.86
45040;BME280;30778;53.574;7.770;2023-03-19T02:27:19;101091.16;;;7.53;56.85
45040;BME280;30778;53.574;7.770;2023-03-19T02:29:47;101080.81;;;7.50;56.83
45040;BME280;30778;53.574;7.770;2023-03-19T02:32:12;101088.66;;;7.48;56.79
45040;BME280;30778;53.574;7.770;2023-03-19T02:34:40;101084.38;;;7.46;56.95
45040;BME280;30778;53.574;7.770;2023-03-19T02:37:20;101091.13;;;7.56;57.00
45040;BME280;30778;53.574;7.770;2023-03-19T02:40:00;101087.69;;;7.54;56.77
45040;BME280;30778;53.574;7.770;2023-03-19T02:42:28;101086.56;;;7.64;56.88
45040;BME280;30778;53.574;7.770;2023-03-19T02:44:56;101089.19;;;7.64;56.42
45040;BME280;30778;53.574;7.770;2023-03-19T02:47:23;101087.69;;;7.54;56.56
45040;BME280;30778;53.574;7.770;2023-03-19T02:49:48;101083.41;;;7.51;56.74
45040;BME280;30778;53.574;7.770;2023-03-19T02:52:14;101082.75;;;7.42;56.74
45040;BME280;30778;53.574;7.770;2023-03-19T02:54:40;101079.41;;;7.37;56.83
45040;BME280;30778;53.574;7.770;2023-03-19T02:57:06;101082.97;;;7.32;56.89
45040;BME280;30778;53.574;7.770;2023-03-19T02:59:31;101081.28;;;7.31;56.69
45040;BME280;30778;53.574;7.770;2023-03-19T03:01:57;101090.22;;;7.18;56.80
45040;BME280;30778;53.574;7.770;2023-03-19T03:04:22;101092.22;;;7.07;57.52
45040;BME280;30778;53.574;7.770;2023-03-19T03:06:48;101097.94;;;7.23;57.32
45040;BME280;30778;53.574;7.770;2023-03-19T03:09:13;101089.94;;;7.30;57.12
45040;BME280;30778;53.574;7.770;2023-03-19T03:11:39;101091.81;;;7.25;56.90
45040;BME280;30778;53.574;7.770;2023-03-19T03:14:07;101099.56;;;7.27;57.26
45040;BME280;30778;53.574;7.770;2023-03-19T03:16:33;101087.28;;;7.33;57.19
45040;BME280;30778;53.574;7.770;2023-03-19T03:18:59;101079.53;;;7.30;57.08
45040;BME280;30778;53.574;7.770;2023-03-19T03:21:25;101094.28;;;7.30;57.05
45040;BME280;30778;53.574;7.770;2023-03-19T03:23:50;101088.28;;;7.26;56.88
45040;BME280;30778;53.574;7.770;2023-03-19T03:26:16;101094.38;;;7.27;57.34
45040;BME280;30778;53.574;7.770;2023-03-19T03:28:42;101099.59;;;7.25;57.10
45040;BME280;30778;53.574;7.770;2023-03-19T03:31:07;101091.66;;;7.31;57.21
45040;BME280;30778;53.574;7.770;2023-03-19T03:33:34;101095.13;;;7.30;57.64
45040;BME280;30778;53.574;7.770;2023-03-19T03:36:00;101098.34;;;7.42;56.95
45040;BME280;30778;53.574;7.770;2023-03-19T03:38:26;101106.13;;;7.43;56.93
45040;BME280;30778;53.574;7.770;2023-03-19T03:40:52;101101.84;;;7.41;56.90
45040;BME280;30778;53.574;7.770;2023-03-19T03:43:20;101103.63;;;7.39;56.94
45040;BME280;30778;53.574;7.770;2023-03-19T03:45:49;101101.13;;;7.36;56.77
45040;BME280;30778;53.574;7.770;2023-03-19T03:48:16;101098.47;;;7.37;57.08
45040;BME280;30778;53.574;7.770;2023-03-19T03:50:42;101099.38;;;7.36;56.95
45040;BME280;30778;53.574;7.770;2023-03-19T03:53:11;101097.69;;;7.33;56.85
45040;BME280;30778;53.574;7.770;2023-03-19T03:55:38;101095.81;;;7.40;56.93
45040;BME280;30778;53.574;7.770;2023-03-19T03:58:03;101101.63;;;7.50;56.94
45040;BME280;30778;53.574;7.770;2023-03-19T04:00:29;101092.91;;;7.52;56.87
45040;BME280;30778;53.574;7.770;2023-03-19T04:02:55;101099.84;;;7.52;56.71
45040;BME280;30778;53.574;7.770;2023-03-19T04:05:21;101102.56;;;7.47;56.89
45040;BME280;30778;53.574;7.770;2023-03-19T04:07:50;101107.78;;;7.47;57.29
45040;BME280;30778;53.574;7.770;2023-03-19T04:10:16;101107.09;;;7.39;57.48
45040;BME280;30778;53.574;7.770;2023-03-19T04:12:42;101107.09;;;7.38;57.23
45040;BME280;30778;53.574;7.770;2023-03-19T04:15:10;101123.84;;;7.26;57.66
45040;BME280;30778;53.574;7.770;2023-03-19T04:17:38;101112.25;;;7.41;57.29
45040;BME280;30778;53.574;7.770;2023-03-19T04:20:05;101112.94;;;7.49;57.40
45040;BME280;30778;53.574;7.770;2023-03-19T04:22:32;101106.75;;;7.53;56.80
45040;BME280;30778;53.574;7.770;2023-03-19T04:24:58;101111.94;;;7.56;56.91
45040;BME280;30778;53.574;7.770;2023-03-19T04:27:24;101106.66;;;7.59;56.92
45040;BME280;30778;53.574;7.770;2023-03-19T04:29:50;101098.72;;;7.64;56.68
45040;BME280;30778;53.574;7.770;2023-03-19T04:32:16;101099.78;;;7.57;56.91
45040;BME280;30778;53.574;7.770;2023-03-19T04:34:42;101103.38;;;7.49;57.04
45040;BME280;30778;53.574;7.770;2023-03-19T04:37:08;101108.53;;;7.51;56.96
45040;BME280;30778;53.574;7.770;2023-03-19T04:39:40;101103.28;;;7.54;57.10
45040;BME280;30778;53.574;7.770;2023-03-19T04:42:06;101105.84;;;7.56;57.16
45040;BME280;30778;53.574;7.770;2023-03-19T04:44:35;101105.81;;;7.59;57.10
45040;BME280;30778;53.574;7.770;2023-03-19T04:47:03;101112.47;;;7.31;57.84
45040;BME280;30778;53.574;7.770;2023-03-19T04:49:35;101111.97;;;7.53;57.54
45040;BME280;30778;53.574;7.770;2023-03-19T04:52:02;101104.88;;;7.61;56.81
45040;BME280;30778;53.574;7.770;2023-03-19T04:54:28;101103.00;;;7.66;57.20
45040;BME280;30778;53.574;7.770;2023-03-19T04:56:55;101105.69;;;7.63;56.99
45040;BME280;30778;53.574;7.770;2023-03-19T04:59:23;101099.47;;;7.69;56.43
45040;BME280;30778;53.574;7.770;2023-03-19T05:01:49;101109.22;;;7.61;56.67
45040;BME280;30778;53.574;7.770;2023-03-19T05:04:19;101106.75;;;7.56;56.97
45040;BME280;30778;53.574;7.770;2023-03-19T05:06:45;101106.56;;;7.62;56.43
45040;BME280;30778;53.574;7.770;2023-03-19T05:09:11;101112.66;;;7.63;56.89
45040;BME280;30778;53.574;7.770;2023-03-19T05:11:37;101112.56;;;7.66;56.67
45040;BME280;30778;53.574;7.770;2023-03-19T05:14:07;101117.69;;;7.69;56.65
45040;BME280;30778;53.574;7.770;2023-03-19T05:16:45;101117.84;;;7.63;56.65
45040;BME280;30778;53.574;7.770;2023-03-19T05:19:10;101124.31;;;7.45;56.91
45040;BME280;30778;53.574;7.770;2023-03-19T05:21:37;101118.88;;;7.54;56.77
45040;BME280;30778;53.574;7.770;2023-03-19T05:24:04;101122.72;;;7.38;56.90
45040;BME280;30778;53.574;7.770;2023-03-19T05:26:33;101124.22;;;7.48;56.76
45040;BME280;30778;53.574;7.770;2023-03-19T05:29:16;101134.88;;;7.37;56.76
45040;BME280;30778;53.574;7.770;2023-03-19T05:31:54;101142.22;;;7.18;57.71
45040;BME280;30778;53.574;7.770;2023-03-19T05:34:20;101124.91;;;7.17;57.55
45040;BME280;30778;53.574;7.770;2023-03-19T05:36:46;101130.63;;;7.33;57.20
45040;BME280;30778;53.574;7.770;2023-03-19T05:39:16;101139.34;;;7.30;57.03
45040;BME280;30778;53.574;7.770;2023-03-19T05:41:43;101134.84;;;7.39;57.02
45040;BME280;30778;53.574;7.770;2023-03-19T05:44:09;101144.78;;;7.20;57.47
45040;BME280;30778;53.574;7.770;2023-03-19T05:46:46;101146.19;;;7.35;57.30
45040;BME280;30778;53.574;7.770;2023-03-19T05:49:13;101145.38;;;7.32;57.12
45040;BME280;30778;53.574;7.770;2023-03-19T05:51:39;101155.41;;;7.49;56.84
45040;BME280;30778;53.574;7.770;2023-03-19T05:54:06;101159.81;;;7.46;57.01
45040;BME280;30778;53.574;7.770;2023-03-19T05:56:34;101158.84;;;7.51;57.03
45040;BME280;30778;53.574;7.770;2023-03-19T05:59:39;101155.44;;;7.48;57.20
45040;BME280;30778;53.574;7.770;2023-03-19T06:02:31;101164.31;;;7.38;57.21
45040;BME280;30778;53.574;7.770;2023-03-19T06:05:15;101168.28;;;7.15;57.94
45040;BME280;30778;53.574;7.770;2023-03-19T06:07:41;101169.34;;;7.47;57.29
45040;BME280;30778;53.574;7.770;2023-03-19T06:10:16;101174.38;;;7.56;57.16
45040;BME280;30778;53.574;7.770;2023-03-19T06:12:41;101171.66;;;7.61;56.97
45040;BME280;30778;53.574;7.770;2023-03-19T06:15:25;101169.19;;;7.53;57.11
45040;BME280;30778;53.574;7.770;2023-03-19T06:18:06;101165.66;;;7.57;57.08
45040;BME280;30778;53.574;7.770;2023-03-19T06:20:33;101166.97;;;7.75;56.49
45040;BME280;30778;53.574;7.770;2023-03-19T06:22:58;101158.91;;;7.87;56.07
45040;BME280;30778;53.574;7.770;2023-03-19T06:25:24;101162.94;;;7.99;56.31
45040;BME280;30778;53.574;7.770;2023-03-19T06:27:50;101168.38;;;7.90;56.04
45040;BME280;30778;53.574;7.770;2023-03-19T06:30:24;101162.78;;;8.05;55.70
45040;BME280;30778;53.574;7.770;2023-03-19T06:32:50;101159.34;;;8.05;55.50
45040;BME280;30778;53.574;7.770;2023-03-19T06:35:17;101170.59;;;8.05;55.73
45040;BME280;30778;53.574;7.770;2023-03-19T06:37:45;101159.22;;;8.09;55.62
45040;BME280;30778;53.574;7.770;2023-03-19T06:40:11;101164.25;;;8.15;55.90
45040;BME280;30778;53.574;7.770;2023-03-19T06:42:37;101173.44;;;8.30;55.42
45040;BME280;30778;53.574;7.770;2023-03-19T06:45:03;101164.94;;;8.56;54.58
45040;BME280;30778;53.574;7.770;2023-03-19T06:47:28;101172.25;;;8.76;54.17
45040;BME280;30778;53.574;7.770;2023-03-19T06:49:54;101173.69;;;8.87;54.24
45040;BME280;30778;53.574;7.770;2023-03-19T06:52:20;101170.78;;;8.97;53.72
45040;BME280;30778;53.574;7.770;2023-03-19T06:54:46;101178.06;;;8.86;53.81
45040;BME280;30778;53.574;7.770;2023-03-19T06:57:12;101175.31;;;8.91;54.05
45040;BME280;30778;53.574;7.770;2023-03-19T06:59:37;101179.66;;;8.92;53.89
45040;BME280;30778;53.574;7.770;2023-03-19T07:02:02;101177.00;;;10.08;54.68
45040;BME280;30778;53.574;7.770;2023-03-19T07:04:28;101180.66;;;10.29;51.29
45040;BME280;30778;53.574;7.770;2023-03-19T07:06:54;101186.44;;;10.12;51.47
45040;BME280;30778;53.574;7.770;2023-03-19T07:09:20;101186.84;;;10.26;50.63
45040;BME280;30778;53.574;7.770;2023-03-19T07:11:45;101191.44;;;9.63;51.33
45040;BME280;30778;53.574;7.770;2023-03-19T07:14:11;101195.50;;;9.72;52.60
45040;BME280;30778;53.574;7.770;2023-03-19T07:16:36;101197.47;;;9.65;51.63
45040;BME280;30778;53.574;7.770;2023-03-19T07:19:02;101196.91;;;9.55;52.11
45040;BME280;30778;53.574;7.770;2023-03-19T07:21:28;101203.19;;;9.76;51.84
45040;BME280;30778;53.574;7.770;2023-03-19T07:23:53;101204.66;;;9.87;51.86
45040;BME280;30778;53.574;7.770;2023-03-19T07:26:19;101204.22;;;9.72;51.67
45040;BME280;30778;53.574;7.770;2023-03-19T07:28:44;101201.25;;;9.85;51.38
45040;BME280;30778;53.574;7.770;2023-03-19T07:31:10;101210.00;;;10.62;51.15
45040;BME280;30778;53.574;7.770;2023-03-19T07:33:35;101201.03;;;10.94;49.59
45040;BME280;30778;53.574;7.770;2023-03-19T07:36:01;101209.72;;;11.20;49.01
45040;BME280;30778;53.574;7.770;2023-03-19T07:38:26;101217.63;;;10.68;49.88
45040;BME280;30778;53.574;7.770;2023-03-19T07:40:52;101216.19;;;10.59;50.64
45040;BME280;30778;53.574;7.770;2023-03-19T07:43:19;101214.13;;;10.94;50.08
45040;BME280;30778;53.574;7.770;2023-03-19T07:45:44;101210.53;;;10.97;49.48
45040;BME280;30778;53.574;7.770;2023-03-19T07:48:09;101212.75;;;10.84;49.58
45040;BME280;30778;53.574;7.770;2023-03-19T07:50:35;101213.09;;;10.98;49.13
45040;BME280;30778;53.574;7.770;2023-03-19T07:53:01;101209.97;;;11.36;49.16
45040;BME280;30778;53.574;7.770;2023-03-19T07:55:28;101214.47;;;11.09;49.05
45040;BME280;30778;53.574;7.770;2023-03-19T07:57:53;101208.38;;;11.08;49.14
45040;BME280;30778;53.574;7.770;2023-03-19T08:00:19;101211.63;;;11.15;49.36
45040;BME280;30778;53.574;7.770;2023-03-19T08:02:45;101217.47;;;10.73;49.88
45040;BME280;30778;53.574;7.770;2023-03-19T08:05:10;101216.41;;;10.53;50.20
45040;BME280;30778;53.574;7.770;2023-03-19T08:07:36;101215.44;;;11.53;49.01
45040;BME280;30778;53.574;7.770;2023-03-19T08:10:03;101211.53;;;14.57;44.02
45040;BME280;30778;53.574;7.770;2023-03-19T08:12:29;101207.44;;;16.87;36.19
45040;BME280;30778;53.574;7.770;2023-03-19T08:14:56;101222.38;;;18.91;35.38
45040;BME280;30778;53.574;7.770;2023-03-19T08:17:22;101215.88;;;18.56;34.78
45040;BME280;30778;53.574;7.770;2023-03-19T08:19:47;101227.00;;;18.23;33.62
45040;BME280;30778;53.574;7.770;2023-03-19T08:22:12;101227.44;;;16.91;35.72
45040;BME280;30778;53.574;7.770;2023-03-19T08:24:38;101241.69;;;15.97;38.10
45040;BME280;30778;53.574;7.770;2023-03-19T08:27:05;101242.13;;;14.75;40.86
45040;BME280;30778;53.574;7.770;2023-03-19T08:29:33;101253.09;;;12.17;44.93
45040;BME280;30778;53.574;7.770;2023-03-19T08:31:59;101255.25;;;11.85;45.03
45040;BME280;30778;53.574;7.770;2023-03-19T08:34:26;101260.41;;;11.39;47.69
45040;BME280;30778;53.574;7.770;2023-03-19T08:36:53;101265.84;;;11.11;47.76
45040;BME280;30778;53.574;7.770;2023-03-19T08:39:19;101261.66;;;10.80;49.04
45040;BME280;30778;53.574;7.770;2023-03-19T08:41:46;101266.22;;;10.74;50.00
45040;BME280;30778;53.574;7.770;2023-03-19T08:44:12;101267.44;;;10.63;49.50
45040;BME280;30778;53.574;7.770;2023-03-19T08:46:38;101274.50;;;10.08;50.59
45040;BME280;30778;53.574;7.770;2023-03-19T08:49:04;101283.41;;;9.71;52.52
45040;BME280;30778;53.574;7.770;2023-03-19T08:51:31;101276.66;;;10.22;50.91
45040;BME280;30778;53.574;7.770;2023-03-19T08:53:57;101285.97;;;10.57;50.11
45040;BME280;30778;53.574;7.770;2023-03-19T08:56:28;101280.09;;;10.51;51.11
45040;BME280;30778;53.574;7.770;2023-03-19T08:58:56;101285.59;;;10.68;50.45
45040;BME280;30778;53.574;7.770;2023-03-19T09:01:22;101285.16;;;10.55;50.33
45040;BME280;30778;53.574;7.770;2023-03-19T09:03:48;101286.53;;;10.66;50.89
45040;BME280;30778;53.574;7.770;2023-03-19T09:06:14;101285.53;;;10.16;51.37
45040;BME280;30778;53.574;7.770;2023-03-19T09:08:40;101293.84;;;10.01;52.23
45040;BME280;30778;53.574;7.770;2023-03-19T09:11:07;101292.69;;;10.11;51.93
45040;BME280;30778;53.574;7.770;2023-03-19T09:13:34;101295.91;;;10.19;51.74
45040;BME280;30778;53.574;7.770;2023-03-19T09:16:00;101297.72;;;10.71;51.08
45040;BME280;30778;53.574;7.770;2023-03-19T09:18:26;101305.47;;;10.47;51.59
45040;BME280;30778;53.574;7.770;2023-03-19T09:20:52;101301.69;;;11.08;49.62
45040;BME280;30778;53.574;7.770;2023-03-19T09:23:19;101306.72;;;11.14;48.67
45040;BME280;30778;53.574;7.770;2023-03-19T09:25:45;101310.06;;;10.92;50.48
45040;BME280;30778;53.574;7.770;2023-03-19T09:28:11;101306.78;;;10.60;50.19
45040;BME280;30778;53.574;7.770;2023-03-19T09:30:37;101305.84;;;10.61;50.71
45040;BME280;30778;53.574;7.770;2023-03-19T09:33:04;101314.41;;;10.40;50.76
45040;BME280;30778;53.574;7.770;2023-03-19T09:35:30;101310.28;;;10.05;51.33
45040;BME280;30778;53.574;7.770;2023-03-19T09:37:58;101312.25;;;9.98;52.26
45040;BME280;30778;53.574;7.770;2023-03-19T09:40:32;101310.63;;;10.22;51.76
45040;BME280;30778;53.574;7.770;2023-03-19T09:45:56;101314.53;;;11.15;49.56
45040;BME280;30778;53.574;7.770;2023-03-19T09:51:47;101314.25;;;11.23;49.27
45040;BME280;30778;53.574;7.770;2023-03-19T09:54:25;101325.00;;;11.15;48.94
45040;BME280;30778;53.574;7.770;2023-03-19T09:56:52;101320.59;;;11.16;49.04
45040;BME280;30778;53.574;7.770;2023-03-19T09:59:23;101321.19;;;10.72;49.81
45040;BME280;30778;53.574;7.770;2023-03-19T10:01:55;101331.47;;;11.54;48.13
45040;BME280;30778;53.574;7.770;2023-03-19T10:04:40;101329.28;;;11.65;48.71
45040;BME280;30778;53.574;7.770;2023-03-19T10:10:16;101338.50;;;11.99;47.21
45040;BME280;30778;53.574;7.770;2023-03-19T10:15:27;101336.91;;;12.40;46.35
45040;BME280;30778;53.574;7.770;2023-03-19T10:18:08;101340.41;;;12.61;47.37
45040;BME280;30778;53.574;7.770;2023-03-19T10:23:51;101347.44;;;12.39;46.92
45040;BME280;30778;53.574;7.770;2023-03-19T10:26:23;101340.00;;;12.50;45.86
45040;BME280;30778;53.574;7.770;2023-03-19T10:29:01;101345.47;;;12.44;45.35
45040;BME280;30778;53.574;7.770;2023-03-19T10:31:41;101339.53;;;11.48;46.76
45040;BME280;30778;53.574;7.770;2023-03-19T10:34:29;101345.06;;;11.40;47.77
45040;BME280;30778;53.574;7.770;2023-03-19T10:37:16;101343.88;;;10.98;48.47
45040;BME280;30778;53.574;7.770;2023-03-19T10:39:46;101348.72;;;11.34;47.94
45040;BME280;30778;53.574;7.770;2023-03-19T10:42:52;101355.94;;;11.28;48.44
45040;BME280;30778;53.574;7.770;2023-03-19T10:47:52;101360.72;;;11.88;47.33
45040;BME280;30778;53.574;7.770;2023-03-19T10:50:20;101360.50;;;11.95;46.35
45040;BME280;30778;53.574;7.770;2023-03-19T10:52:50;101363.03;;;12.42;46.27
45040;BME280;30778;53.574;7.770;2023-03-19T10:55:24;101355.88;;;12.01;46.05
45040;BME280;30778;53.574;7.770;2023-03-19T10:57:56;101360.34;;;12.65;44.43
45040;BME280;30778;53.574;7.770;2023-03-19T11:00:28;101347.72;;;12.75;42.82
45040;BME280;30778;53.574;7.770;2023-03-19T11:02:57;101362.16;;;12.19;43.82
45040;BME280;30778;53.574;7.770;2023-03-19T11:05:28;101352.47;;;12.65;42.76
45040;BME280;30778;53.574;7.770;2023-03-19T11:08:02;101354.22;;;12.22;43.31
45040;BME280;30778;53.574;7.770;2023-03-19T11:10:31;101355.47;;;12.56;41.67
45040;BME280;30778;53.574;7.770;2023-03-19T11:13:03;101361.09;;;12.47;42.27
45040;BME280;30778;53.574;7.770;2023-03-19T11:15:36;101353.06;;;12.74;42.47
45040;BME280;30778;53.574;7.770;2023-03-19T11:18:27;101345.50;;;13.67;41.14
45040;BME280;30778;53.574;7.770;2023-03-19T11:23:21;101351.13;;;12.33;42.22
45040;BME280;30778;53.574;7.770;2023-03-19T11:25:52;101354.88;;;12.27;42.00
45040;BME280;30778;53.574;7.770;2023-03-19T11:28:22;101357.50;;;11.57;44.17
45040;BME280;30778;53.574;7.770;2023-03-19T11:31:13;101359.25;;;11.81;43.69
45040;BME280;30778;53.574;7.770;2023-03-19T11:44:01;101361.00;;;12.48;42.60
45040;BME280;30778;53.574;7.770;2023-03-19T11:46:41;101363.41;;;13.59;41.18
45040;BME280;30778;53.574;7.770;2023-03-19T11:54:33;101362.13;;;13.07;41.25
45040;BME280;30778;53.574;7.770;2023-03-19T11:57:45;101352.66;;;12.83;40.86
45040;BME280;30778;53.574;7.770;2023-03-19T12:00:47;101365.53;;;13.69;40.13
45040;BME280;30778;53.574;7.770;2023-03-19T12:09:24;101356.38;;;13.78;39.60
45040;BME280;30778;53.574;7.770;2023-03-19T12:14:45;101355.69;;;13.15;40.09
45040;BME280;30778;53.574;7.770;2023-03-19T12:23:04;101357.16;;;13.80;39.59
45040;BME280;30778;53.574;7.770;2023-03-19T12:28:45;101353.75;;;13.78;39.41
45040;BME280;30778;53.574;7.770;2023-03-19T12:34:01;101352.75;;;13.62;39.32
45040;BME280;30778;53.574;7.770;2023-03-19T12:36:32;101345.19;;;12.94;40.21
45040;BME280;30778;53.574;7.770;2023-03-19T12:39:25;101349.59;;;13.53;39.78
45040;BME280;30778;53.574;7.770;2023-03-19T12:41:56;101349.94;;;14.77;37.79
45040;BME280;30778;53.574;7.770;2023-03-19T12:49:56;101345.50;;;15.95;34.86
45040;BME280;30778;53.574;7.770;2023-03-19T12:52:27;101354.94;;;15.99;35.11
45040;BME280;30778;53.574;7.770;2023-03-19T12:55:16;101353.72;;;15.24;35.25
45040;BME280;30778;53.574;7.770;2023-03-19T12:57:50;101356.59;;;14.84;36.36
45040;BME280;30778;53.574;7.770;2023-03-19T13:05:43;101353.63;;;13.81;37.79
45040;BME280;30778;53.574;7.770;2023-03-19T13:08:22;101359.78;;;14.18;38.54
45040;BME280;30778;53.574;7.770;2023-03-19T13:10:51;101359.28;;;15.17;36.50
45040;BME280;30778;53.574;7.770;2023-03-19T13:15:58;101345.00;;;16.36;35.10
45040;BME280;30778;53.574;7.770;2023-03-19T13:21:21;101356.50;;;15.03;36.45
45040;BME280;30778;53.574;7.770;2023-03-19T13:23:57;101356.25;;;14.19;36.65
45040;BME280;30778;53.574;7.770;2023-03-19T13:26:25;101355.16;;;14.42;37.16
45040;BME280;30778;53.574;7.770;2023-03-19T13:31:35;101354.78;;;14.67;37.20
45040;BME280;30778;53.574;7.770;2023-03-19T13:34:04;101350.63;;;14.08;36.42
45040;BME280;30778;53.574;7.770;2023-03-19T13:36:35;101353.00;;;15.37;36.14
45040;BME280;30778;53.574;7.770;2023-03-19T13:39:03;101353.03;;;16.03;34.83
45040;BME280;30778;53.574;7.770;2023-03-19T13:47:00;101352.97;;;15.22;35.44
45040;BME280;30778;53.574;7.770;2023-03-19T13:51:57;101357.75;;;15.80;34.13
45040;BME280;30778;53.574;7.770;2023-03-19T13:54:35;101353.63;;;16.08;34.16
45040;BME280;30778;53.574;7.770;2023-03-19T14:01:58;101358.56;;;18.61;28.80
45040;BME280;30778;53.574;7.770;2023-03-19T14:04:35;101356.63;;;18.63;29.44
45040;BME280;30778;53.574;7.770;2023-03-19T14:14:53;101368.06;;;15.51;33.47
45040;BME280;30778;53.574;7.770;2023-03-19T14:17:33;101371.44;;;14.85;35.33
45040;BME280;30778;53.574;7.770;2023-03-19T14:22:37;101369.75;;;15.02;34.81
45040;BME280;30778;53.574;7.770;2023-03-19T14:27:45;101377.94;;;14.95;35.68
45040;BME280;30778;53.574;7.770;2023-03-19T14:30:16;101375.84;;;14.67;35.36
45040;BME280;30778;53.574;7.770;2023-03-19T14:32:45;101373.75;;;14.38;36.19
45040;BME280;30778;53.574;7.770;2023-03-19T14:35:16;101377.91;;;14.24;36.51
45040;BME280;30778;53.574;7.770;2023-03-19T14:37:49;101374.31;;;14.81;35.89
45040;BME280;30778;53.574;7.770;2023-03-19T14:40:54;101369.19;;;15.12;34.75
45040;BME280;30778;53.574;7.770;2023-03-19T14:52:08;101383.53;;;13.58;37.58
45040;BME280;30778;53.574;7.770;2023-03-19T14:54:45;101383.44;;;13.80;37.53
45040;BME280;30778;53.574;7.770;2023-03-19T14:57:18;101380.34;;;13.31;38.05
45040;BME280;30778;53.574;7.770;2023-03-19T14:59:44;101378.16;;;14.37;36.29